createdAt,value
2016-04-02T00:00:06.110Z,0
2016-04-02T00:00:19.454Z,0
2016-04-02T00:01:38.614Z,0
2016-04-02T00:02:25.726Z,0
2016-04-02T00:03:45.229Z,0
2016-04-02T00:04:32.310Z,0
2016-04-02T00:05:52.174Z,0
2016-04-02T00:06:30.409Z,0
2016-04-02T00:08:27.398Z,0
2016-04-02T00:08:39.960Z,0
2016-04-02T00:10:55.313Z,0
2016-04-02T00:11:55.190Z,0
2016-04-02T00:12:55.287Z,0
2016-04-02T00:13:55.259Z,0
2016-04-02T00:14:55.276Z,0
2016-04-02T00:16:08.029Z,0
2016-04-02T00:17:01.532Z,0
2016-04-02T00:18:14.519Z,0
2016-04-02T00:18:55.365Z,0
2016-04-02T00:20:14.539Z,0
2016-04-02T00:21:01.450Z,0
2016-04-02T00:23:27.173Z,0
2016-04-02T00:25:30.272Z,0
2016-04-02T00:26:04.463Z,0
2016-04-02T00:27:04.622Z,0
2016-04-02T00:28:04.640Z,0
2016-04-02T00:29:17.486Z,0
2016-04-02T00:30:04.707Z,0
2016-04-02T00:31:17.460Z,0
2016-04-02T00:32:17.463Z,0
2016-04-02T00:33:30.387Z,0
2016-04-02T00:34:17.671Z,0
2016-04-02T00:35:36.695Z,0
2016-04-02T00:36:17.698Z,0
2016-04-02T00:38:26.249Z,0
2016-04-02T00:39:39.221Z,0
2016-04-02T00:40:32.754Z,0
2016-04-02T00:41:45.680Z,0
2016-04-02T00:42:20.073Z,0
2016-04-02T00:43:51.403Z,0
2016-04-02T00:44:29.641Z,0
2016-04-02T00:45:29.675Z,0
2016-04-02T00:46:35.943Z,0
2016-04-02T00:47:29.695Z,0
2016-04-02T00:48:31.230Z,0
2016-04-02T00:49:29.733Z,0
2016-04-02T00:50:32.781Z,0
2016-04-02T00:51:29.847Z,0
2016-04-02T00:52:42.491Z,0
2016-04-02T00:53:31.196Z,0
2016-04-02T00:54:29.792Z,0
2016-04-02T00:55:32.874Z,0
2016-04-02T00:56:29.860Z,0
2016-04-02T00:57:29.847Z,0
2016-04-02T00:58:42.646Z,0
2016-04-02T00:59:29.853Z,0
2016-04-02T01:00:55.561Z,0
2016-04-02T01:01:29.265Z,0
2016-04-02T01:02:29.955Z,0
2016-04-02T01:03:36.223Z,0
2016-04-02T01:04:42.835Z,0
2016-04-02T01:05:29.947Z,0
2016-04-02T01:06:55.671Z,0
2016-04-02T01:07:31.421Z,0
2016-04-02T01:09:01.365Z,0
2016-04-02T01:09:45.255Z,0
2016-04-02T01:10:45.290Z,0
2016-04-02T01:11:58.029Z,0
2016-04-02T01:12:45.404Z,0
2016-04-02T01:14:10.987Z,0
2016-04-02T01:14:45.425Z,0
2016-04-02T01:16:16.649Z,0
2016-04-02T01:16:55.026Z,0
2016-04-02T01:18:26.356Z,0
2016-04-02T01:18:56.578Z,0
2016-04-02T01:19:55.691Z,0
2016-04-02T01:20:55.069Z,0
2016-04-02T01:22:07.853Z,0
2016-04-02T01:22:55.137Z,0
2016-04-02T01:24:20.827Z,0
2016-04-02T01:25:07.875Z,0
2016-04-02T01:25:55.160Z,0
2016-04-02T01:26:55.178Z,0
2016-04-02T01:27:55.197Z,0
2016-04-02T01:28:55.200Z,0
2016-04-02T01:30:07.999Z,0
2016-04-02T01:31:07.971Z,0
2016-04-02T01:31:55.252Z,0
2016-04-02T01:32:55.302Z,0
2016-04-02T01:34:07.947Z,0
2016-04-02T01:34:55.322Z,0
2016-04-02T01:36:14.593Z,0
2016-04-02T01:37:08.096Z,0
2016-04-02T01:38:21.021Z,0
2016-04-02T01:39:14.601Z,0
2016-04-02T01:39:58.463Z,0
2016-04-02T01:41:50.013Z,0
2016-04-02T01:42:02.609Z,0
2016-04-02T01:43:33.909Z,0
2016-04-02T01:44:08.943Z,0
2016-04-02T01:46:20.870Z,0
2016-04-02T01:47:20.889Z,0
2016-04-02T01:48:32.891Z,0
2016-04-02T01:49:22.347Z,0
2016-04-02T01:50:40.130Z,0
2016-04-02T01:51:20.961Z,0
2016-04-02T01:52:20.964Z,0
2016-04-02T01:53:20.967Z,0
2016-04-02T01:54:27.266Z,0
2016-04-02T01:55:33.785Z,0
2016-04-02T01:56:21.046Z,0
2016-04-02T01:57:46.725Z,0
2016-04-02T01:58:21.044Z,0
2016-04-02T01:59:52.363Z,0
2016-04-02T02:00:33.823Z,0
2016-04-02T02:01:21.069Z,0
2016-04-02T02:02:33.817Z,0
2016-04-02T02:03:21.066Z,0
2016-04-02T02:04:21.111Z,0
2016-04-02T02:05:33.844Z,0
2016-04-02T02:06:33.860Z,0
2016-04-02T02:07:40.173Z,0
2016-04-02T02:08:22.481Z,0
2016-04-02T02:09:21.169Z,0
2016-04-02T02:10:24.201Z,0
2016-04-02T02:11:21.985Z,0
2016-04-02T02:12:21.191Z,0
2016-04-02T02:13:21.849Z,0
2016-04-02T02:14:21.234Z,0
2016-04-02T02:15:21.253Z,0
2016-04-02T02:16:33.990Z,0
2016-04-02T02:17:21.898Z,0
2016-04-02T02:18:21.885Z,0
2016-04-02T02:19:21.324Z,0
2016-04-02T02:20:21.373Z,0
2016-04-02T02:21:21.345Z,0
2016-04-02T02:22:21.378Z,0
2016-04-02T02:23:21.381Z,0
2016-04-02T02:24:21.587Z,0
2016-04-02T02:25:22.011Z,0
2016-04-02T02:26:34.186Z,0
2016-04-02T02:27:22.877Z,0
2016-04-02T02:28:21.442Z,0
2016-04-02T02:29:21.476Z,0
2016-04-02T02:30:22.087Z,0
2016-04-02T02:31:27.856Z,0
2016-04-02T02:32:34.250Z,0
2016-04-02T02:33:21.550Z,0
2016-04-02T02:34:40.756Z,0
2016-04-02T02:35:34.320Z,0
2016-04-02T02:36:21.573Z,0
2016-04-02T02:37:21.420Z,0
2016-04-02T02:38:52.922Z,0
2016-04-02T02:39:27.862Z,0
2016-04-02T02:40:21.474Z,0
2016-04-02T02:41:21.665Z,0
2016-04-02T02:42:21.886Z,0
2016-04-02T02:43:21.733Z,0
2016-04-02T02:44:28.001Z,0
2016-04-02T02:45:21.722Z,0
2016-04-02T02:46:40.960Z,0
2016-04-02T02:47:21.775Z,0
2016-04-02T02:48:47.465Z,0
2016-04-02T02:49:28.749Z,0
2016-04-02T02:50:51.391Z,0
2016-04-02T02:51:25.723Z,0
2016-04-02T02:52:25.741Z,0
2016-04-02T02:53:32.056Z,0
2016-04-02T02:54:25.777Z,0
2016-04-02T02:56:47.455Z,0
2016-04-02T02:57:28.286Z,0
2016-04-02T02:58:28.273Z,0
2016-04-02T02:59:28.370Z,0
2016-04-02T03:00:28.309Z,0
2016-04-02T03:01:35.218Z,0
2016-04-02T03:02:28.331Z,0
2016-04-02T03:03:47.567Z,0
2016-04-02T03:04:28.368Z,0
2016-04-02T03:05:28.370Z,0
2016-04-02T03:06:29.029Z,0
2016-04-02T03:07:29.001Z,0
2016-04-02T03:08:34.738Z,0
2016-04-02T03:09:28.459Z,0
2016-04-02T03:10:28.478Z,0
2016-04-02T03:11:41.214Z,0
2016-04-02T03:12:28.530Z,0
2016-04-02T03:13:47.720Z,0
2016-04-02T03:14:28.550Z,0
2016-04-02T03:15:28.522Z,0
2016-04-02T03:16:28.555Z,0
2016-04-02T03:17:28.574Z,0
2016-04-02T03:18:41.311Z,0
2016-04-02T03:19:28.611Z,0
2016-04-02T03:20:47.802Z,0
2016-04-02T03:21:28.632Z,0
2016-04-02T03:22:48.057Z,0
2016-04-02T03:23:28.652Z,0
2016-04-02T03:25:38.221Z,0
2016-04-02T03:26:38.223Z,0
2016-04-02T03:28:09.741Z,0
2016-04-02T03:28:51.026Z,0
2016-04-02T03:29:38.341Z,0
2016-04-02T03:30:51.047Z,0
2016-04-02T03:31:39.581Z,0
2016-04-02T03:32:38.959Z,0
2016-04-02T03:33:38.336Z,0
2016-04-02T03:34:38.370Z,0
2016-04-02T03:35:45.263Z,0
2016-04-02T03:36:38.391Z,0
2016-04-02T03:37:38.409Z,0
2016-04-02T03:38:38.412Z,0
2016-04-02T03:39:57.758Z,0
2016-04-02T03:40:51.292Z,0
2016-04-02T03:43:00.767Z,0
2016-04-02T03:44:00.770Z,0
2016-04-02T03:45:07.131Z,0
2016-04-02T03:46:00.790Z,0
2016-04-02T03:47:00.840Z,0
2016-04-02T03:48:00.874Z,0
2016-04-02T03:49:07.173Z,0
2016-04-02T03:50:00.894Z,0
2016-04-02T03:51:13.694Z,0
2016-04-02T03:52:01.087Z,0
2016-04-02T03:53:20.124Z,0
2016-04-02T03:54:00.952Z,0
2016-04-02T03:55:20.207Z,0
2016-04-02T03:56:00.941Z,0
2016-04-02T03:57:26.651Z,0
2016-04-02T03:58:00.994Z,0
2016-04-02T03:59:01.013Z,0
2016-04-02T04:00:01.124Z,0
2016-04-02T04:01:07.299Z,0
2016-04-02T04:02:07.426Z,0
2016-04-02T04:03:01.070Z,0
2016-04-02T04:04:01.245Z,0
2016-04-02T04:05:07.357Z,0
2016-04-02T04:06:13.876Z,0
2016-04-02T04:07:01.129Z,0
2016-04-02T04:08:13.865Z,0
2016-04-02T04:09:01.165Z,0
2016-04-02T04:10:13.918Z,0
2016-04-02T04:11:07.498Z,0
2016-04-02T04:12:15.345Z,0
2016-04-02T04:13:20.444Z,0
2016-04-02T04:14:00.600Z,0
2016-04-02T04:15:01.275Z,0
2016-04-02T04:16:01.917Z,0
2016-04-02T04:17:01.311Z,0
2016-04-02T04:18:14.016Z,0
2016-04-02T04:19:07.472Z,0
2016-04-02T04:20:20.541Z,0
2016-04-02T04:21:14.072Z,4
2016-04-02T04:22:32.671Z,4
2016-04-02T04:23:23.830Z,0
2016-04-02T04:24:42.224Z,0
2016-04-02T04:25:30.132Z,4
2016-04-02T04:26:10.976Z,4
2016-04-02T04:27:30.246Z,4
2016-04-02T04:28:10.981Z,4
2016-04-02T04:29:36.689Z,4
2016-04-02T04:30:11.204Z,8
2016-04-02T04:31:11.035Z,8
2016-04-02T04:32:11.242Z,8
2016-04-02T04:33:42.387Z,12
2016-04-02T04:34:23.813Z,12
2016-04-02T04:35:11.141Z,16
2016-04-02T04:36:30.412Z,16
2016-04-02T04:37:11.146Z,16
2016-04-02T04:39:13.745Z,24
2016-04-02T04:39:51.967Z,28
2016-04-02T04:40:26.344Z,28
2016-04-02T04:41:57.644Z,40
2016-04-02T04:42:27.787Z,40
2016-04-02T04:43:26.353Z,44
2016-04-02T04:44:45.762Z,56
2016-04-02T04:45:32.858Z,60
2016-04-02T04:46:52.095Z,72
2016-04-02T04:47:27.864Z,76
2016-04-02T04:48:52.428Z,88
2016-04-02T04:50:52.230Z,100
2016-04-02T04:52:17.905Z,116
2016-04-02T04:52:59.174Z,120
2016-04-02T04:54:53.147Z,144
2016-04-02T04:55:25.025Z,148
2016-04-02T04:58:05.813Z,176
2016-04-02T04:58:40.158Z,200
2016-04-02T04:59:40.161Z,212
2016-04-02T05:00:53.071Z,240
2016-04-02T05:01:40.198Z,260
2016-04-02T05:04:09.249Z,324
2016-04-02T05:06:49.992Z,392
2016-04-02T05:07:24.260Z,428
2016-04-02T05:09:21.312Z,496
2016-04-02T05:09:33.875Z,504
2016-04-02T05:11:30.880Z,580
2016-04-02T05:11:44.161Z,588
2016-04-02T05:12:44.056Z,632
2016-04-02T05:13:44.198Z,672
2016-04-02T05:14:56.826Z,732
2016-04-02T05:15:50.220Z,772
2016-04-02T05:16:44.113Z,820
2016-04-02T05:17:56.959Z,880
2016-04-02T05:18:44.133Z,924
2016-04-02T05:20:03.355Z,1000
2016-04-02T05:20:47.233Z,1044
2016-04-02T05:22:06.439Z,1124
2016-04-02T05:22:53.426Z,1168
2016-04-02T05:24:09.523Z,1256
2016-04-02T05:24:56.603Z,1304
2016-04-02T05:26:16.106Z,1400
2016-04-02T05:26:50.374Z,1440
2016-04-02T05:28:21.692Z,1552
2016-04-02T05:29:03.192Z,1608
2016-04-02T05:31:32.668Z,1816
2016-04-02T05:32:07.043Z,1864
2016-04-02T05:34:11.643Z,2044
2016-04-02T05:34:24.207Z,2076
2016-04-02T05:36:26.948Z,2284
2016-04-02T05:36:39.557Z,2304
2016-04-02T05:37:39.545Z,2408
2016-04-02T05:38:45.813Z,2528
2016-04-02T05:39:45.846Z,2640
2016-04-02T05:40:52.318Z,2772
2016-04-02T05:41:52.351Z,2892
2016-04-02T05:42:58.854Z,3024
2016-04-02T05:44:05.311Z,3164
2016-04-02T05:46:14.050Z,3432
2016-04-02T05:47:14.052Z,3556
2016-04-02T05:48:14.055Z,3680
2016-04-02T05:49:26.842Z,3832
2016-04-02T05:50:14.092Z,3920
2016-04-02T05:51:33.379Z,4108
2016-04-02T05:52:20.522Z,4228
2016-04-02T05:53:39.822Z,4448
2016-04-02T05:54:14.166Z,4560
2016-04-02T05:55:39.921Z,4756
2016-04-02T05:56:14.436Z,5000
2016-04-02T05:58:29.413Z,5568
2016-04-02T05:59:48.619Z,5836
2016-04-02T06:00:35.700Z,5940
2016-04-02T06:01:29.453Z,6112
2016-04-02T06:02:42.205Z,6372
2016-04-02T06:03:35.740Z,6552
2016-04-02T06:04:55.164Z,6908
2016-04-02T06:05:42.307Z,7092
2016-04-02T06:07:00.841Z,7188
2016-04-02T06:07:29.593Z,7200
2016-04-02T06:08:29.612Z,7232
2016-04-02T06:09:29.631Z,7600
2016-04-02T06:10:29.633Z,7824
2016-04-02T06:11:35.886Z,7892
2016-04-02T06:12:35.934Z,8048
2016-04-02T06:13:42.391Z,8300
2016-04-02T06:14:42.456Z,8768
2016-04-02T06:15:29.709Z,8796
2016-04-02T06:16:48.915Z,8768
2016-04-02T06:17:29.731Z,8624
2016-04-02T06:19:26.720Z,8796
2016-04-02T06:19:39.486Z,8836
2016-04-02T06:20:39.285Z,9008
2016-04-02T06:21:39.334Z,9304
2016-04-02T06:22:39.337Z,9652
2016-04-02T06:23:39.386Z,9712
2016-04-02T06:24:39.499Z,9948
2016-04-02T06:25:39.438Z,10092
2016-04-02T06:26:39.488Z,10036
2016-04-02T06:27:39.460Z,9708
2016-04-02T06:28:39.446Z,9088
2016-04-02T06:29:39.496Z,8904
2016-04-02T06:30:39.530Z,9160
2016-04-02T06:31:39.548Z,9780
2016-04-02T06:32:39.521Z,10088
2016-04-02T06:33:39.570Z,10176
2016-04-02T06:34:39.588Z,10564
2016-04-02T06:35:39.637Z,10784
2016-04-02T06:36:39.624Z,10576
2016-04-02T06:37:39.643Z,10336
2016-04-02T06:38:39.677Z,10320
2016-04-02T06:39:39.758Z,10480
2016-04-02T06:40:39.699Z,10596
2016-04-02T06:41:39.717Z,10280
2016-04-02T06:42:39.751Z,10276
2016-04-02T06:43:39.769Z,10360
2016-04-02T06:44:39.771Z,10268
2016-04-02T06:45:39.790Z,10660
2016-04-02T06:46:39.839Z,11680
2016-04-02T06:47:39.858Z,12176
2016-04-02T06:48:39.861Z,12224
2016-04-02T06:49:39.863Z,12592
2016-04-02T06:50:40.022Z,13036
2016-04-02T06:51:39.977Z,13288
2016-04-02T06:52:39.964Z,14464
2016-04-02T06:53:39.936Z,15008
2016-04-02T06:54:52.720Z,15360
2016-04-02T06:55:39.973Z,15808
2016-04-02T06:56:59.210Z,17408
2016-04-02T06:58:08.791Z,19040
2016-04-02T06:58:43.121Z,20704
2016-04-02T06:59:43.140Z,20928
2016-04-02T07:00:49.580Z,22048
2016-04-02T07:01:43.207Z,23744
2016-04-02T07:02:43.179Z,26496
2016-04-02T07:03:43.243Z,30240
2016-04-02T07:04:43.231Z,33536
2016-04-02T07:05:43.265Z,35488
2016-04-02T07:06:43.284Z,35808
2016-04-02T07:07:43.332Z,34528
2016-04-02T07:08:49.633Z,34272
2016-04-02T07:09:43.354Z,34176
2016-04-02T07:10:56.232Z,33696
2016-04-02T07:11:43.423Z,33824
2016-04-02T07:13:02.643Z,33824
2016-04-02T07:13:43.443Z,33472
2016-04-02T07:14:43.493Z,32960
2016-04-02T07:15:43.511Z,33248
2016-04-02T07:16:43.514Z,33024
2016-04-02T07:17:49.845Z,33216
2016-04-02T07:18:43.831Z,32960
2016-04-02T07:19:43.756Z,32736
2016-04-02T07:20:43.837Z,33504
2016-04-02T07:21:43.824Z,34208
2016-04-02T07:22:56.436Z,33600
2016-04-02T07:23:43.798Z,33472
2016-04-02T07:24:56.535Z,33664
2016-04-02T07:25:43.788Z,34176
2016-04-02T07:26:43.852Z,35104
2016-04-02T07:27:43.840Z,36224
2016-04-02T07:28:43.858Z,37056
2016-04-02T07:29:43.861Z,36000
2016-04-02T07:30:44.020Z,35296
2016-04-02T07:31:43.913Z,35168
2016-04-02T07:32:43.979Z,34816
2016-04-02T07:33:44.012Z,35360
2016-04-02T07:34:44.015Z,36192
2016-04-02T07:35:44.033Z,36256
2016-04-02T07:36:44.068Z,36864
2016-04-02T07:37:44.101Z,36608
2016-04-02T07:38:44.088Z,36800
2016-04-02T07:39:44.137Z,37248
2016-04-02T07:40:44.156Z,37312
2016-04-02T07:41:44.190Z,37152
2016-04-02T07:42:44.224Z,36288
2016-04-02T07:43:44.227Z,36672
2016-04-02T07:44:44.261Z,36064
2016-04-02T07:45:44.326Z,35264
2016-04-02T07:46:44.312Z,25664
2016-04-02T07:47:44.347Z,12008
2016-04-02T07:48:44.350Z,9268
2016-04-02T07:49:44.399Z,8668
2016-04-02T07:50:44.418Z,8468
2016-04-02T07:51:44.451Z,8328
2016-04-02T07:52:44.595Z,8204
2016-04-02T07:53:44.489Z,8092
2016-04-02T07:54:44.538Z,8012
2016-04-02T07:55:44.541Z,7916
2016-04-02T07:56:44.574Z,7880
2016-04-02T07:57:44.577Z,7824
2016-04-02T07:58:44.626Z,7836
2016-04-02T07:59:44.676Z,7856
2016-04-02T08:00:44.647Z,7836
2016-04-02T08:01:44.682Z,7816
2016-04-02T08:02:57.450Z,7832
2016-04-02T08:03:44.594Z,7852
2016-04-02T08:05:10.424Z,7800
2016-04-02T08:05:51.130Z,7816
2016-04-02T08:06:44.820Z,7824
2016-04-02T08:07:44.791Z,7864
2016-04-02T08:08:44.840Z,7876
2016-04-02T08:09:44.859Z,7920
2016-04-02T08:10:44.893Z,7960
2016-04-02T08:11:44.942Z,7948
2016-04-02T08:12:44.914Z,7956
2016-04-02T08:13:44.948Z,7944
2016-04-02T08:14:44.982Z,7912
2016-04-02T08:15:44.985Z,7924
2016-04-02T08:16:45.003Z,7912
2016-04-02T08:17:45.068Z,7888
2016-04-02T08:18:45.148Z,7868
2016-04-02T08:19:45.073Z,7864
2016-04-02T08:20:45.123Z,7872
2016-04-02T08:21:45.126Z,7812
2016-04-02T08:22:45.129Z,7756
2016-04-02T08:23:45.772Z,7768
2016-04-02T08:24:45.775Z,7812
2016-04-02T08:25:45.214Z,7804
2016-04-02T08:26:45.202Z,7784
2016-04-02T08:27:45.251Z,7760
2016-04-02T08:28:45.316Z,7700
2016-04-02T08:29:45.272Z,7672
2016-04-02T08:30:45.322Z,7640
2016-04-02T08:31:45.372Z,7612
2016-04-02T08:32:45.358Z,7612
2016-04-02T08:33:45.361Z,7620
2016-04-02T08:34:58.113Z,7612
2016-04-02T08:35:45.429Z,7588
2016-04-02T08:37:04.665Z,7564
2016-04-02T08:37:45.434Z,7548
2016-04-02T08:39:48.080Z,7476
2016-04-02T08:40:26.348Z,7428
2016-04-02T08:41:00.661Z,7404
2016-04-02T08:43:03.292Z,7320
2016-04-02T08:43:35.076Z,7292
2016-04-02T08:44:15.888Z,7232
2016-04-02T08:45:15.937Z,7180
2016-04-02T08:46:15.940Z,7100
2016-04-02T08:47:41.634Z,7080
2016-04-02T08:48:15.993Z,7064
2016-04-02T08:49:48.029Z,6976
2016-04-02T08:50:26.281Z,6944
2016-04-02T08:51:57.769Z,6892
2016-04-02T08:52:29.569Z,6888
2016-04-02T08:53:29.555Z,6888
2016-04-02T08:54:42.339Z,6860
2016-04-02T08:55:29.592Z,6876
2016-04-02T08:56:48.845Z,6868
2016-04-02T08:57:29.645Z,6860
2016-04-02T08:59:00.960Z,6816
2016-04-02T08:59:39.275Z,6824
2016-04-02T09:01:10.652Z,6776
2016-04-02T09:01:39.280Z,6776
2016-04-02T09:02:39.266Z,6788
2016-04-02T09:03:52.036Z,6752
2016-04-02T09:04:52.085Z,6752
2016-04-02T09:06:05.010Z,6704
2016-04-02T09:06:39.465Z,6684
2016-04-02T09:07:39.405Z,6664
2016-04-02T09:08:52.157Z,6648
2016-04-02T09:09:39.410Z,6636
2016-04-02T09:11:05.101Z,6644
2016-04-02T09:11:39.448Z,6644
2016-04-02T09:12:39.482Z,6620
2016-04-02T09:13:39.562Z,6584
2016-04-02T09:14:39.503Z,6584
2016-04-02T09:15:39.552Z,6560
2016-04-02T09:16:39.587Z,6540
2016-04-02T09:17:45.965Z,6484
2016-04-02T09:18:39.607Z,6480
2016-04-02T09:19:39.688Z,6476
2016-04-02T09:20:39.644Z,6480
2016-04-02T09:21:39.662Z,6480
2016-04-02T09:22:39.680Z,6456
2016-04-02T09:23:39.683Z,6428
2016-04-02T09:24:39.780Z,6460
2016-04-02T09:25:39.736Z,6436
2016-04-02T09:26:39.770Z,6440
2016-04-02T09:27:39.819Z,6456
2016-04-02T09:28:40.009Z,6456
2016-04-02T09:29:39.839Z,6460
2016-04-02T09:30:39.905Z,6456
2016-04-02T09:31:39.844Z,6436
2016-04-02T09:32:46.144Z,6432
2016-04-02T09:33:39.897Z,6372
2016-04-02T09:34:52.682Z,6168
2016-04-02T09:35:39.966Z,6136
2016-04-02T09:36:39.952Z,6180
2016-04-02T09:37:46.268Z,6256
2016-04-02T09:38:39.988Z,6232
2016-04-02T09:39:40.024Z,6244
2016-04-02T09:40:39.885Z,6248
2016-04-02T09:41:40.076Z,6248
2016-04-02T09:42:40.109Z,6248
2016-04-02T09:43:40.096Z,6232
2016-04-02T09:44:40.099Z,6220
2016-04-02T09:45:40.148Z,6228
2016-04-02T09:46:40.182Z,6244
2016-04-02T09:47:40.200Z,6256
2016-04-02T09:48:40.829Z,6276
2016-04-02T09:49:46.503Z,6288
2016-04-02T09:50:40.240Z,6296
2016-04-02T09:51:40.273Z,6308
2016-04-02T09:52:40.714Z,6280
2016-04-02T09:53:53.217Z,6344
2016-04-02T09:54:40.625Z,6356
2016-04-02T09:56:06.175Z,6352
2016-04-02T09:56:40.553Z,6340
2016-04-02T09:58:11.775Z,6352
2016-04-02T09:58:50.028Z,6360
2016-04-02T10:00:15.717Z,6380
2016-04-02T10:00:50.189Z,6376
2016-04-02T10:01:50.082Z,6348
2016-04-02T10:02:51.538Z,6320
2016-04-02T10:03:50.119Z,6272
2016-04-02T10:04:50.138Z,6272
2016-04-02T10:06:02.734Z,6236
2016-04-02T10:06:50.221Z,6208
2016-04-02T10:07:50.161Z,6164
2016-04-02T10:08:50.241Z,6148
2016-04-02T10:09:50.385Z,6136
2016-04-02T10:10:50.246Z,6144
2016-04-02T10:11:50.327Z,6132
2016-04-02T10:12:50.362Z,6128
2016-04-02T10:13:50.318Z,6120
2016-04-02T10:14:50.399Z,6116
2016-04-02T10:15:50.370Z,6112
2016-04-02T10:16:50.404Z,6108
2016-04-02T10:17:50.593Z,6120
2016-04-02T10:18:50.784Z,6120
2016-04-02T10:19:56.895Z,6112
2016-04-02T10:20:50.789Z,6116
2016-04-02T10:21:56.886Z,6108
2016-04-02T10:22:50.748Z,6096
2016-04-02T10:23:50.595Z,6072
2016-04-02T10:24:50.769Z,6052
2016-04-02T10:25:50.647Z,6028
2016-04-02T10:26:50.774Z,6008
2016-04-02T10:27:50.933Z,5988
2016-04-02T10:28:51.014Z,5968
2016-04-02T10:29:50.658Z,5984
2016-04-02T10:30:50.692Z,6004
2016-04-02T10:31:50.741Z,6004
2016-04-02T10:32:50.728Z,5996
2016-04-02T10:33:50.793Z,5996
2016-04-02T10:34:50.764Z,5988
2016-04-02T10:35:50.907Z,5972
2016-04-02T10:36:50.832Z,5940
2016-04-02T10:38:03.944Z,5932
2016-04-02T10:38:50.900Z,5932
2016-04-02T10:39:50.888Z,5932
2016-04-02T10:40:50.905Z,5924
2016-04-02T10:41:57.205Z,5904
2016-04-02T10:42:51.083Z,5888
2016-04-02T10:43:50.960Z,5856
2016-04-02T10:44:50.995Z,5840
2016-04-02T10:46:03.731Z,5808
2016-04-02T10:46:51.062Z,5792
2016-04-02T10:48:16.721Z,5788
2016-04-02T10:48:51.084Z,5776
2016-04-02T10:50:22.401Z,5740
2016-04-02T10:51:06.323Z,5732
2016-04-02T10:52:06.357Z,5716
2016-04-02T10:53:19.219Z,5708
2016-04-02T10:54:06.363Z,5704
2016-04-02T10:55:25.587Z,5688
2016-04-02T10:56:06.415Z,5700
2016-04-02T10:57:06.465Z,5712
2016-04-02T10:58:06.436Z,5736
2016-04-02T10:59:19.204Z,5736
2016-04-02T11:00:06.472Z,5716
2016-04-02T11:01:06.491Z,5700
2016-04-02T11:02:06.540Z,5688
2016-04-02T11:03:06.548Z,5656
2016-04-02T11:04:06.617Z,5636
2016-04-02T11:05:06.594Z,5620
2016-04-02T11:06:06.586Z,5628
2016-04-02T11:07:06.452Z,5652
2016-04-02T11:08:19.325Z,5684
2016-04-02T11:09:19.199Z,5700
2016-04-02T11:10:32.335Z,5708
2016-04-02T11:12:41.054Z,5704
2016-04-02T11:13:22.492Z,5752
2016-04-02T11:14:09.805Z,5784
2016-04-02T11:16:01.198Z,5652
2016-04-02T11:16:13.791Z,5632
2016-04-02T11:18:05.202Z,5628
2016-04-02T11:18:18.108Z,5616
2016-04-02T11:20:20.613Z,5604
2016-04-02T11:20:33.256Z,5604
2016-04-02T11:21:33.320Z,5592
2016-04-02T11:22:33.261Z,5616
2016-04-02T11:23:33.279Z,5588
2016-04-02T11:24:39.610Z,5568
2016-04-02T11:25:34.754Z,5564
2016-04-02T11:26:46.084Z,5664
2016-04-02T11:27:36.400Z,5616
2016-04-02T11:28:52.589Z,5564
2016-04-02T11:29:42.717Z,5572
2016-04-02T11:30:59.095Z,5584
2016-04-02T11:31:52.660Z,5604
2016-04-02T11:34:14.900Z,5588
2016-04-02T11:34:58.809Z,5588
2016-04-02T11:36:24.500Z,5600
2016-04-02T11:36:58.814Z,5604
2016-04-02T11:39:14.069Z,5576
2016-04-02T11:41:11.262Z,5532
2016-04-02T11:41:23.840Z,5528
2016-04-02T11:42:36.658Z,5520
2016-04-02T11:43:23.986Z,5508
2016-04-02T11:44:43.399Z,5520
2016-04-02T11:45:55.979Z,5524
2016-04-02T11:48:02.390Z,5592
2016-04-02T11:48:36.674Z,5572
2016-04-02T11:51:17.727Z,5520
2016-04-02T11:51:52.074Z,5512
2016-04-02T11:54:32.954Z,5484
2016-04-02T11:55:26.518Z,5484
2016-04-02T11:56:07.303Z,5528
2016-04-02T11:58:09.948Z,5520
2016-04-02T11:58:22.495Z,5512
2016-04-02T12:00:51.379Z,5488
2016-04-02T12:01:25.739Z,5488
2016-04-02T12:02:57.025Z,5448
2016-04-02T12:03:38.464Z,5436
2016-04-02T12:04:26.371Z,5428
2016-04-02T12:06:22.752Z,5432
2016-04-02T12:06:35.363Z,5392
2016-04-02T12:07:35.335Z,5344
2016-04-02T12:08:35.399Z,5376
2016-04-02T12:09:48.308Z,5452
2016-04-02T12:10:35.405Z,5444
2016-04-02T12:11:54.658Z,5432
2016-04-02T12:12:35.458Z,5448
2016-04-02T12:14:01.163Z,5408
2016-04-02T12:14:45.041Z,5388
2016-04-02T12:16:04.294Z,5376
2016-04-02T12:16:45.077Z,5372
2016-04-02T12:17:45.113Z,5352
2016-04-02T12:18:45.146Z,5364
2016-04-02T12:19:51.399Z,5336
2016-04-02T12:20:45.448Z,5308
2016-04-02T12:21:51.482Z,5296
2016-04-02T12:22:45.235Z,5308
2016-04-02T12:23:45.284Z,5376
2016-04-02T12:24:45.381Z,5400
2016-04-02T12:25:45.289Z,5384
2016-04-02T12:26:45.199Z,5404
2016-04-02T12:27:45.498Z,5428
2016-04-02T12:28:45.501Z,5632
2016-04-02T12:29:45.645Z,5872
2016-04-02T12:30:45.537Z,5784
2016-04-02T12:31:45.572Z,5560
2016-04-02T12:32:45.511Z,5400
2016-04-02T12:33:58.217Z,5352
2016-04-02T12:34:45.563Z,5344
2016-04-02T12:36:04.722Z,5312
2016-04-02T12:36:48.631Z,5296
2016-04-02T12:38:14.322Z,5312
2016-04-02T12:38:58.200Z,5372
2016-04-02T12:40:49.564Z,5412
2016-04-02T12:41:02.127Z,5392
2016-04-02T12:42:53.508Z,5316
2016-04-02T12:43:06.086Z,5272
2016-04-02T12:45:10.138Z,5200
2016-04-02T12:45:22.810Z,5188
2016-04-02T12:46:22.719Z,5164
2016-04-02T12:47:35.583Z,5176
2016-04-02T12:48:23.630Z,5172
2016-04-02T12:49:42.010Z,5152
2016-04-02T12:50:24.291Z,5000
2016-04-02T12:53:54.756Z,5192
2016-04-02T12:54:54.743Z,5156
2016-04-02T12:57:23.514Z,5160
2016-04-02T12:58:10.642Z,5152
2016-04-02T12:59:24.159Z,5148
2016-04-02T13:01:52.527Z,5204
2016-04-02T13:03:39.533Z,5168
2016-04-02T13:04:39.676Z,5168
2016-04-02T13:05:39.600Z,5176
2016-04-02T13:06:52.353Z,5208
2016-04-02T13:07:39.636Z,5216
2016-04-02T13:09:05.405Z,5160
2016-04-02T13:09:39.689Z,5152
2016-04-02T13:10:39.755Z,5204
2016-04-02T13:11:39.820Z,5164
2016-04-02T13:12:39.760Z,5112
2016-04-02T13:13:39.810Z,5076
2016-04-02T13:14:39.796Z,5040
2016-04-02T13:15:39.940Z,5036
2016-04-02T13:16:52.613Z,5052
2016-04-02T13:17:40.538Z,5072
2016-04-02T13:19:42.982Z,5068
2016-04-02T13:20:43.000Z,5060
2016-04-02T13:21:43.018Z,5076
2016-04-02T13:22:43.115Z,5088
2016-04-02T13:23:43.054Z,5108
2016-04-02T13:24:43.073Z,5120
2016-04-02T13:25:43.106Z,5128
2016-04-02T13:26:43.125Z,5156
2016-04-02T13:27:43.159Z,5172
2016-04-02T13:28:43.193Z,5176
2016-04-02T13:29:43.196Z,5212
2016-04-02T13:30:43.074Z,5236
2016-04-02T13:31:43.264Z,5244
2016-04-02T13:32:43.267Z,5240
2016-04-02T13:33:49.550Z,5268
2016-04-02T13:34:56.084Z,5292
2016-04-02T13:35:43.400Z,5304
2016-04-02T13:36:43.340Z,5332
2016-04-02T13:37:43.390Z,5360
2016-04-02T13:38:43.392Z,5368
2016-04-02T13:39:43.442Z,5412
2016-04-02T13:40:49.725Z,5444
2016-04-02T13:41:43.478Z,5440
2016-04-02T13:43:02.730Z,5436
2016-04-02T13:43:43.515Z,5468
2016-04-02T13:45:40.521Z,5452
2016-04-02T13:45:53.067Z,5436
2016-04-02T13:46:53.133Z,5400
2016-04-02T13:47:53.166Z,5408
2016-04-02T13:48:53.154Z,5432
2016-04-02T13:50:05.890Z,5464
2016-04-02T13:50:59.471Z,5480
2016-04-02T13:51:53.207Z,5472
2016-04-02T13:53:06.023Z,5444
2016-04-02T13:53:53.463Z,5416
2016-04-02T13:55:12.529Z,5396
2016-04-02T13:56:24.454Z,5404
2016-04-02T13:57:13.987Z,5412
2016-04-02T13:58:24.646Z,5420
2016-04-02T13:58:53.398Z,5428
2016-04-02T13:59:53.386Z,5464
2016-04-02T14:00:53.451Z,5512
2016-04-02T14:01:59.764Z,5540
2016-04-02T14:02:59.593Z,5564
2016-04-02T14:03:53.491Z,5568
2016-04-02T14:04:59.922Z,5628
2016-04-02T14:06:06.257Z,5724
2016-04-02T14:06:53.603Z,5632
2016-04-02T14:08:56.858Z,5544
2016-04-02T14:10:53.739Z,5560
2016-04-02T14:11:07.755Z,5564
2016-04-02T14:13:11.026Z,5540
2016-04-02T14:13:26.479Z,5524
2016-04-02T14:14:23.731Z,5480
2016-04-02T14:15:26.703Z,5260
2016-04-02T14:16:36.396Z,5204
2016-04-02T14:17:23.692Z,5300
2016-04-02T14:19:39.294Z,6300
2016-04-02T14:20:52.078Z,6672
2016-04-02T14:21:39.613Z,6956
2016-04-02T14:22:58.646Z,6908
2016-04-02T14:23:39.415Z,6552
2016-04-02T14:24:58.667Z,6100
2016-04-02T14:25:45.716Z,5948
2016-04-02T14:27:36.456Z,5784
2016-04-02T14:27:49.346Z,5772